Time;durP1;ratioP1;P1;durP2;ratioP2;P2;SDS_P1;SDS_P2;PMS_P1;PMS_P2;Temp;Humidity;BMP_temperature;BMP_pressure;BME280_temperature;BME280_humidity;BME280_pressure;Samples;Min_cycle;Max_cycle;Signal;HPM_P1;HPM_P2
2022/06/23 00:00:31;;;;;;;5.40;3.70;;;11.90;99.90;;;;;;5034786;28;20507;-72
2022/06/23 00:03:00;;;;;;;7.10;3.83;;;12.00;99.90;;;;;;5043650;28;20029;-70
2022/06/23 00:05:35;;;;;;;7.93;4.22;;;12.00;99.90;;;;;;5051512;28;20052;-70
2022/06/23 00:08:05;;;;;;;6.03;3.50;;;12.10;99.90;;;;;;5058863;28;20079;-71
2022/06/23 00:10:59;;;;;;;4.95;2.83;;;12.20;99.90;;;;;;5031535;28;20033;-69
2022/06/23 00:13:35;;;;;;;6.10;2.08;;;12.30;99.90;;;;;;5060137;28;20037;-69
2022/06/23 00:16:05;;;;;;;6.38;3.47;;;12.30;99.90;;;;;;5040358;28;20394;-72
2022/06/23 00:18:38;;;;;;;3.90;2.58;;;12.40;99.90;;;;;;5031285;28;20093;-73
2022/06/23 00:21:17;;;;;;;4.97;2.65;;;12.50;99.90;;;;;;5069770;28;20063;-72
2022/06/23 00:23:48;;;;;;;6.85;2.78;;;12.50;99.90;;;;;;5050959;28;20021;-72
2022/06/23 00:26:22;;;;;;;5.55;2.60;;;12.60;99.90;;;;;;5045947;28;20021;-69
2022/06/23 00:29:10;;;;;;;4.50;2.55;;;12.80;99.90;;;;;;5030641;28;20371;-69
2022/06/23 00:31:44;;;;;;;6.22;3.50;;;13.00;99.90;;;;;;5031237;28;20374;-70
2022/06/23 00:34:29;;;;;;;5.95;2.88;;;13.10;99.90;;;;;;5042589;28;20036;-72
2022/06/23 00:37:17;;;;;;;6.18;2.10;;;13.30;99.90;;;;;;5031565;28;20025;-69
2022/06/23 00:39:48;;;;;;;6.45;2.05;;;13.40;99.90;;;;;;5036554;28;20021;-70
2022/06/23 00:42:28;;;;;;;4.55;1.80;;;13.50;99.90;;;;;;5031947;28;20018;-74
2022/06/23 00:45:01;;;;;;;7.18;1.85;;;13.60;99.90;;;;;;5031552;28;20017;-70
2022/06/23 00:47:58;;;;;;;5.40;2.20;;;13.70;99.90;;;;;;5032110;28;20022;-70
2022/06/23 00:51:08;;;;;;;4.40;2.65;;;13.90;99.90;;;;;;5031631;28;20044;-69
2022/06/23 00:53:44;;;;;;;4.47;2.67;;;14.00;99.90;;;;;;4996413;28;20049;-69
2022/06/23 00:56:15;;;;;;;4.38;2.42;;;14.00;99.90;;;;;;5034369;28;20519;-69
2022/06/23 00:58:54;;;;;;;4.18;2.38;;;14.10;99.90;;;;;;5035896;28;20070;-69
2022/06/23 01:01:59;;;;;;;2.78;1.45;;;14.30;99.90;;;;;;5033822;28;20098;-69
2022/06/23 01:04:50;;;;;;;1.98;1.00;;;14.30;99.90;;;;;;5033343;28;20088;-70
2022/06/23 01:07:37;;;;;;;5.00;2.05;;;14.40;99.90;;;;;;5034678;28;20069;-70
2022/06/23 01:10:25;;;;;;;7.07;1.23;;;14.60;99.90;;;;;;5034141;28;20033;-69
2022/06/23 01:13:18;;;;;;;3.58;1.35;;;14.80;99.50;;;;;;5034618;28;20047;-69
2022/06/23 01:15:54;;;;;;;5.25;3.10;;;15.00;99.40;;;;;;5031821;28;20096;-69
2022/06/23 01:18:32;;;;;;;3.05;1.27;;;15.10;99.20;;;;;;5034219;28;20059;-70
2022/06/23 01:21:09;;;;;;;5.43;2.05;;;15.10;98.70;;;;;;5034349;28;20041;-69
2022/06/23 01:24:15;;;;;;;3.30;0.80;;;15.40;98.40;;;;;;5034130;28;20060;-69
2022/06/23 01:26:59;;;;;;;2.13;1.05;;;15.50;98.40;;;;;;5033343;28;20053;-69
2022/06/23 01:29:46;;;;;;;2.22;1.48;;;15.60;98.20;;;;;;5033321;28;20488;-69
2022/06/23 01:32:21;;;;;;;2.17;0.63;;;15.70;97.90;;;;;;5034754;28;20489;-69
2022/06/23 01:34:59;;;;;;;2.25;0.80;;;15.90;97.10;;;;;;5035046;28;20097;-69
2022/06/23 01:37:43;;;;;;;1.67;1.13;;;15.90;96.90;;;;;;5035263;28;20026;-69
2022/06/23 01:40:19;;;;;;;1.33;0.65;;;16.00;96.90;;;;;;5035046;28;20026;-69
2022/06/23 01:43:01;;;;;;;1.48;0.80;;;16.30;96.50;;;;;;5035222;28;20029;-69
2022/06/23 01:45:38;;;;;;;1.73;0.77;;;16.40;96.30;;;;;;5035398;28;20060;-69
2022/06/23 01:48:51;;;;;;;2.97;0.73;;;16.50;96.10;;;;;;5035028;28;20029;-69
2022/06/23 01:51:36;;;;;;;3.97;0.70;;;16.70;95.70;;;;;;5034903;28;20041;-70
2022/06/23 01:54:22;;;;;;;1.63;0.80;;;16.80;95.80;;;;;;5049250;28;20052;-70
2022/06/23 01:57:02;;;;;;;3.83;1.05;;;17.00;95.50;;;;;;5035279;28;20029;-70
2022/06/23 02:00:13;;;;;;;1.80;0.77;;;17.10;94.60;;;;;;5034702;28;20026;-69
2022/06/23 02:02:58;;;;;;;1.42;0.70;;;17.30;94.30;;;;;;5032396;28;20064;-72
2022/06/23 02:05:31;;;;;;;1.75;0.73;;;17.40;94.30;;;;;;5034353;28;20036;-72
2022/06/23 02:08:27;;;;;;;1.00;0.65;;;17.60;93.80;;;;;;5034211;28;20021;-72
2022/06/23 02:11:24;;;;;;;2.45;0.98;;;17.60;94.00;;;;;;5034669;28;20068;-72
2022/06/23 02:14:21;;;;;;;1.98;0.93;;;17.60;93.70;;;;;;5033802;28;20029;-72
2022/06/23 02:17:30;;;;;;;2.10;1.20;;;17.50;93.60;;;;;;5034621;28;20075;-72
2022/06/23 02:20:26;;;;;;;2.78;0.85;;;17.60;93.40;;;;;;5034521;28;20442;-72
2022/06/23 02:23:23;;;;;;;5.50;1.30;;;17.80;93.70;;;;;;5033581;28;20033;-72
2022/06/23 02:26:06;;;;;;;2.05;1.00;;;17.70;93.80;;;;;;5045705;28;20030;-72
2022/06/23 02:28:45;;;;;;;2.50;1.00;;;17.80;93.80;;;;;;5033928;28;20512;-72
2022/06/23 02:31:27;;;;;;;4.57;1.27;;;17.70;94.10;;;;;;5034329;28;20026;-72
2022/06/23 02:34:09;;;;;;;2.97;0.90;;;17.80;94.00;;;;;;5033390;28;20549;-72
2022/06/23 02:37:02;;;;;;;1.98;0.95;;;17.90;94.10;;;;;;5034347;28;20024;-72
2022/06/23 02:39:37;;;;;;;1.27;0.68;;;18.20;93.40;;;;;;5024430;28;20120;-72
2022/06/23 02:42:26;;;;;;;1.63;0.50;;;18.30;92.70;;;;;;5034187;28;20064;-71
2022/06/23 02:45:08;;;;;;;1.25;0.50;;;18.60;92.70;;;;;;5034189;28;20083;-72
2022/06/23 02:47:38;;;;;;;1.58;0.70;;;18.90;92.70;;;;;;5033902;28;20017;-72
2022/06/23 02:50:28;;;;;;;1.85;0.60;;;19.30;91.70;;;;;;5033532;28;20025;-72
2022/06/23 02:53:33;;;;;;;1.23;0.60;;;19.70;91.00;;;;;;5034103;28;20033;-72
2022/06/23 02:56:16;;;;;;;1.30;0.93;;;20.10;90.80;;;;;;5033983;28;20405;-71
2022/06/23 02:58:50;;;;;;;0.65;0.50;;;20.60;90.20;;;;;;5033208;28;20017;-72
2022/06/23 03:01:26;;;;;;;1.00;0.60;;;20.90;89.40;;;;;;5033609;28;20032;-72
2022/06/23 03:04:15;;;;;;;3.25;0.52;;;21.00;88.20;;;;;;5033913;28;20048;-72
2022/06/23 03:07:09;;;;;;;1.70;0.60;;;21.00;87.80;;;;;;5033574;28;20057;-72
2022/06/23 03:09:51;;;;;;;1.88;0.60;;;21.20;87.00;;;;;;5032195;28;20364;-72
2022/06/23 03:12:35;;;;;;;1.92;0.93;;;21.40;86.90;;;;;;5033502;28;20029;-72
2022/06/23 03:15:31;;;;;;;1.40;0.80;;;21.40;86.40;;;;;;5032613;28;20100;-72
2022/06/23 03:18:04;;;;;;;1.60;0.70;;;21.40;86.40;;;;;;5047611;28;20033;-72
2022/06/23 03:20:49;;;;;;;3.55;0.50;;;21.60;86.10;;;;;;5033298;28;20025;-73
2022/06/23 03:23:24;;;;;;;3.60;0.60;;;21.60;85.30;;;;;;5033422;28;20029;-72
2022/06/23 03:25:58;;;;;;;1.35;0.70;;;21.60;85.50;;;;;;5032091;28;20350;-72
2022/06/23 03:28:40;;;;;;;1.42;0.68;;;21.80;84.70;;;;;;5031874;28;20400;-72
2022/06/23 03:31:18;;;;;;;0.98;0.50;;;21.90;84.00;;;;;;5033273;28;20074;-72
2022/06/23 03:33:54;;;;;;;1.80;0.60;;;22.30;82.80;;;;;;5033301;28;20060;-72
2022/06/23 03:36:32;;;;;;;1.75;0.70;;;22.70;82.10;;;;;;5033119;28;20025;-73
2022/06/23 03:42:23;;;;;;;0.73;0.40;;;23.70;77.60;;;;;;5032859;28;20083;-72
2022/06/23 03:45:14;;;;;;;1.73;0.40;;;24.00;75.60;;;;;;5032543;28;20025;-72
2022/06/23 03:48:00;;;;;;;0.77;0.40;;;23.90;75.00;;;;;;5044256;28;20121;-69
2022/06/23 03:50:51;;;;;;;0.52;0.30;;;24.10;74.40;;;;;;5032985;28;20129;-71
2022/06/23 03:54:00;;;;;;;0.50;0.30;;;24.20;74.20;;;;;;5032765;28;20029;-69
2022/06/23 03:56:36;;;;;;;1.00;0.40;;;24.40;73.30;;;;;;5030609;28;20091;-70
2022/06/23 03:59:15;;;;;;;0.43;0.40;;;24.50;72.60;;;;;;5030242;28;20037;-70
2022/06/23 04:01:59;;;;;;;1.05;0.30;;;24.60;72.10;;;;;;5031526;28;20065;-71
2022/06/23 04:04:55;;;;;;;0.40;0.40;;;24.40;72.20;;;;;;5032396;28;20529;-70
2022/06/23 04:07:29;;;;;;;0.32;0.30;;;24.00;72.90;;;;;;5032531;28;20386;-70
2022/06/23 04:10:09;;;;;;;0.40;0.30;;;23.30;73.10;;;;;;5032513;28;20037;-70
2022/06/23 04:12:43;;;;;;;0.60;0.30;;;22.70;75.10;;;;;;5032472;28;20173;-69
2022/06/23 04:15:39;;;;;;;0.30;0.30;;;22.10;76.30;;;;;;5032673;28;20021;-70
2022/06/23 04:18:12;;;;;;;1.02;0.30;;;21.40;77.10;;;;;;5031810;28;20192;-69
2022/06/23 04:20:49;;;;;;;1.23;0.35;;;20.90;78.30;;;;;;5031171;28;20026;-70
2022/06/23 04:23:29;;;;;;;1.02;0.40;;;20.50;79.50;;;;;;5032230;28;20032;-70
2022/06/23 04:26:05;;;;;;;1.38;0.20;;;20.10;80.90;;;;;;5032354;28;20022;-70
2022/06/23 04:28:58;;;;;;;0.90;0.40;;;19.90;81.80;;;;;;5032275;28;20540;-70
2022/06/23 04:31:36;;;;;;;0.40;0.40;;;19.80;82.70;;;;;;5031859;28;20060;-70
2022/06/23 04:34:04;;;;;;;0.63;0.35;;;19.60;83.00;;;;;;5032255;28;20029;-73
2022/06/23 04:36:34;;;;;;;1.08;0.30;;;19.50;83.50;;;;;;5032189;28;20017;-71
2022/06/23 04:39:31;;;;;;;0.43;0.43;;;19.50;82.20;;;;;;5032169;28;20497;-72
2022/06/23 04:42:23;;;;;;;3.95;0.43;;;19.30;82.60;;;;;;5031982;28;20017;-70
2022/06/23 04:44:55;;;;;;;1.13;0.45;;;19.30;83.00;;;;;;5031958;28;20101;-71
2022/06/23 04:47:31;;;;;;;0.90;0.40;;;19.30;82.50;;;;;;5032214;28;20022;-73
2022/06/23 04:50:10;;;;;;;0.40;0.30;;;19.20;82.00;;;;;;5032339;28;20036;-72
2022/06/23 04:52:41;;;;;;;0.70;0.30;;;19.10;81.90;;;;;;5031960;28;20382;-73
2022/06/23 04:55:12;;;;;;;0.40;0.30;;;19.10;82.80;;;;;;5031544;28;20049;-73
2022/06/23 04:57:45;;;;;;;0.80;0.35;;;19.10;83.60;;;;;;5032109;28;20051;-70
2022/06/23 05:00:30;;;;;;;;;;;19.10;82.10;;;;;;5032521;28;20025;-71
2022/06/23 05:03:22;;;;;;;0.57;0.40;;;19.00;82.80;;;;;;5032043;28;19909;-71
2022/06/23 05:06:21;;;;;;;0.43;0.38;;;19.00;83.40;;;;;;5030550;28;20025;-71
2022/06/23 05:08:50;;;;;;;0.77;0.40;;;19.00;83.20;;;;;;5030916;28;20100;-71
2022/06/23 05:11:34;;;;;;;0.80;0.40;;;19.00;82.70;;;;;;5031825;28;20056;-72
2022/06/23 05:14:13;;;;;;;0.60;0.50;;;18.90;82.90;;;;;;5031895;28;20103;-72
2022/06/23 05:16:45;;;;;;;1.50;0.30;;;18.80;83.50;;;;;;5032029;28;20471;-71
2022/06/23 05:19:27;;;;;;;0.68;0.40;;;18.90;83.80;;;;;;5031563;28;20030;-70
2022/06/23 05:22:25;;;;;;;0.68;0.30;;;18.80;83.70;;;;;;5030499;28;20065;-71
2022/06/23 05:24:54;;;;;;;2.13;0.45;;;18.80;83.70;;;;;;5030074;28;20037;-71
2022/06/23 05:27:35;;;;;;;1.15;0.45;;;18.70;83.70;;;;;;5030128;28;20017;-71
2022/06/23 05:30:17;;;;;;;1.33;0.40;;;18.70;84.50;;;;;;5031204;28;20029;-70
2022/06/23 05:33:04;;;;;;;0.65;0.40;;;18.70;84.40;;;;;;5031383;28;20025;-71
2022/06/23 05:35:43;;;;;;;0.30;0.30;;;18.70;82.70;;;;;;5013462;28;20056;-72
2022/06/23 05:38:25;;;;;;;1.13;0.60;;;18.80;83.20;;;;;;5012556;28;20704;-74
2022/06/23 05:41:15;;;;;;;;;;;18.80;83.10;;;;;;5014653;28;20077;-72
2022/06/23 05:43:43;;;;;;;0.77;0.50;;;18.80;83.20;;;;;;5019573;28;20376;-73
2022/06/23 05:46:20;;;;;;;0.80;0.40;;;18.60;83.80;;;;;;5015242;28;20060;-73
2022/06/23 05:49:01;;;;;;;0.80;0.45;;;18.60;84.00;;;;;;5015134;28;20454;-72
2022/06/23 05:51:59;;;;;;;0.68;0.30;;;18.50;84.80;;;;;;5014978;28;20382;-73
2022/06/23 05:54:29;;;;;;;0.95;0.40;;;18.30;85.00;;;;;;5015007;28;20510;-72
2022/06/23 05:57:11;;;;;;;1.27;0.30;;;18.20;84.80;;;;;;5015352;28;20029;-73
2022/06/23 05:59:50;;;;;;;1.40;0.57;;;18.10;85.70;;;;;;5015337;28;20029;-72
2022/06/23 06:02:29;;;;;;;0.85;0.65;;;18.30;86.50;;;;;;5028606;28;20028;-72
2022/06/23 06:04:59;;;;;;;0.70;0.50;;;18.40;86.00;;;;;;5034252;28;20032;-72
2022/06/23 06:07:34;;;;;;;0.70;0.50;;;18.50;84.80;;;;;;5034637;28;20025;-72
2022/06/23 06:10:05;;;;;;;1.42;0.50;;;18.60;84.40;;;;;;5034460;28;20026;-72
2022/06/23 06:12:39;;;;;;;0.85;0.40;;;18.40;84.80;;;;;;5034111;28;20095;-73
2022/06/23 06:15:22;;;;;;;0.88;0.40;;;18.20;84.50;;;;;;5034310;28;20021;-71
2022/06/23 06:17:50;;;;;;;;;;;17.90;85.20;;;;;;5034486;28;20475;-72
2022/06/23 06:20:22;;;;;;;1.02;0.47;;;17.70;86.80;;;;;;5034014;28;20289;-71
2022/06/23 06:23:15;;;;;;;1.25;0.50;;;17.50;87.70;;;;;;5033927;28;20026;-71
2022/06/23 06:25:47;;;;;;;0.95;0.50;;;17.20;88.40;;;;;;5031861;28;20041;-71
2022/06/23 06:28:21;;;;;;;2.08;0.50;;;17.10;89.20;;;;;;5032982;28;20454;-73
2022/06/23 06:31:01;;;;;;;1.20;0.50;;;16.90;89.60;;;;;;5050852;28;20029;-71
2022/06/23 06:33:34;;;;;;;1.50;0.52;;;16.80;90.00;;;;;;5053392;28;20096;-71
2022/06/23 06:36:02;;;;;;;0.57;0.40;;;16.60;90.20;;;;;;5021298;28;20021;-74
2022/06/23 06:38:30;;;;;;;1.00;0.50;;;16.50;90.60;;;;;;5034150;28;20056;-74
2022/06/23 06:40:59;;;;;;;1.42;0.60;;;16.50;90.50;;;;;;5027393;28;20053;-73
2022/06/23 06:43:30;;;;;;;1.42;0.70;;;16.40;90.70;;;;;;5032561;28;20020;-73
2022/06/23 06:45:58;;;;;;;0.98;0.70;;;16.30;90.80;;;;;;5048659;28;20038;-74
2022/06/23 06:48:36;;;;;;;1.33;0.77;;;16.20;90.90;;;;;;5032266;28;20071;-72
2022/06/23 06:51:06;;;;;;;2.38;0.60;;;16.10;91.00;;;;;;5032555;28;20056;-70
2022/06/23 06:53:43;;;;;;;2.88;0.93;;;16.10;91.30;;;;;;5033264;28;20025;-71
2022/06/23 06:56:17;;;;;;;1.60;0.80;;;16.00;91.30;;;;;;5029156;28;20033;-72
2022/06/23 06:59:08;;;;;;;1.90;0.60;;;15.90;91.50;;;;;;5031744;28;20426;-73
2022/06/23 07:01:39;;;;;;;1.15;0.70;;;15.80;91.70;;;;;;5032684;28;20557;-72
2022/06/23 07:04:15;;;;;;;1.20;0.75;;;15.70;91.60;;;;;;5036195;28;20033;-74
2022/06/23 07:06:53;;;;;;;2.38;0.88;;;15.70;91.80;;;;;;5043815;28;20063;-72
2022/06/23 07:09:24;;;;;;;2.47;0.90;;;15.60;91.80;;;;;;5050127;28;20029;-73
2022/06/23 07:11:54;;;;;;;3.15;0.90;;;15.60;92.00;;;;;;5037680;28;20485;-73
2022/06/23 07:14:31;;;;;;;2.17;0.90;;;15.50;92.10;;;;;;5036503;28;20025;-72
2022/06/23 07:17:10;;;;;;;1.77;0.77;;;15.50;92.00;;;;;;5032810;28;20030;-72
2022/06/23 07:19:52;;;;;;;5.50;2.00;;;15.40;92.20;;;;;;5049497;28;20040;-72
2022/06/23 07:22:30;;;;;;;5.95;3.65;;;15.40;92.30;;;;;;5034648;28;20464;-73
2022/06/23 07:25:03;;;;;;;8.48;6.65;;;15.30;92.30;;;;;;5041771;28;20494;-73
2022/06/23 07:27:36;;;;;;;4.28;2.72;;;15.30;92.50;;;;;;5036727;28;20018;-73
2022/06/23 07:30:33;;;;;;;4.57;3.30;;;15.20;92.60;;;;;;5051437;28;20064;-72
2022/06/23 07:33:00;;;;;;;7.43;6.03;;;15.20;92.60;;;;;;5012783;28;20112;-71
2022/06/23 07:35:51;;;;;;;8.48;6.68;;;15.10;92.60;;;;;;5039774;28;20037;-73
2022/06/23 07:38:21;;;;;;;2.80;2.25;;;15.00;92.90;;;;;;5038698;28;20071;-73
2022/06/23 07:41:07;;;;;;;2.60;1.05;;;15.00;92.90;;;;;;5039412;28;20564;-71
2022/06/23 07:43:52;;;;;;;2.97;1.45;;;14.90;92.90;;;;;;5063452;28;20029;-71
2022/06/23 07:46:19;;;;;;;2.25;1.50;;;14.90;93.00;;;;;;5018010;28;20095;-71
2022/06/23 07:48:46;;;;;;;4.32;1.95;;;14.80;93.10;;;;;;5041171;28;20385;-71
2022/06/23 07:51:15;;;;;;;1.55;1.10;;;14.80;93.00;;;;;;5043281;28;20018;-72
2022/06/23 07:53:46;;;;;;;2.13;1.30;;;14.80;93.00;;;;;;5030960;28;20113;-72
2022/06/23 07:56:17;;;;;;;4.57;3.25;;;14.70;93.20;;;;;;5016680;28;20378;-71
2022/06/23 07:58:47;;;;;;;2.10;1.60;;;14.70;93.20;;;;;;5040191;28;20154;-71
2022/06/23 08:01:41;;;;;;;4.00;1.65;;;14.70;93.30;;;;;;5042257;28;20028;-71
2022/06/23 08:04:16;;;;;;;3.00;2.53;;;14.70;93.10;;;;;;5018859;28;20485;-72
2022/06/23 08:06:44;;;;;;;2.40;1.80;;;14.60;93.20;;;;;;5057374;28;20033;-70
2022/06/23 08:09:42;;;;;;;3.88;2.45;;;14.70;93.20;;;;;;5058750;28;20417;-71
2022/06/23 08:18:34;;;;;;;3.65;2.60;;;14.40;93.70;;;;;;5014745;28;20052;-71
2022/06/23 08:21:24;;;;;;;4.13;2.88;;;14.40;93.80;;;;;;5041415;28;20018;-72
2022/06/23 08:24:03;;;;;;;7.35;6.07;;;14.30;94.20;;;;;;5032288;28;20492;-72
2022/06/23 08:26:31;;;;;;;8.77;6.85;;;14.30;94.10;;;;;;5044489;28;20029;-71
2022/06/23 08:29:02;;;;;;;5.75;3.28;;;14.20;94.40;;;;;;5041123;28;20486;-71
2022/06/23 08:31:31;;;;;;;5.50;2.67;;;14.10;94.70;;;;;;5040629;28;20026;-71
2022/06/23 08:34:01;;;;;;;4.13;2.60;;;14.10;95.00;;;;;;5050143;28;20072;-71
2022/06/23 08:36:43;;;;;;;5.75;3.97;;;14.00;95.40;;;;;;5036008;28;20033;-72
2022/06/23 08:39:25;;;;;;;5.47;3.53;;;13.90;95.60;;;;;;5041869;28;20363;-70
2022/06/23 08:42:13;;;;;;;5.95;3.13;;;13.80;95.90;;;;;;5036950;28;20254;-73
2022/06/23 08:45:06;;;;;;;3.67;1.98;;;13.80;95.90;;;;;;5037277;28;20110;-72
2022/06/23 08:47:42;;;;;;;3.20;2.42;;;13.70;96.20;;;;;;5019294;28;20032;-71
2022/06/23 08:50:31;;;;;;;5.28;2.15;;;13.60;96.50;;;;;;5048290;28;20478;-72
2022/06/23 08:53:36;;;;;;;3.83;2.50;;;13.60;96.80;;;;;;5011433;28;20453;-72
2022/06/23 08:56:19;;;;;;;3.05;2.30;;;13.50;97.20;;;;;;5044777;28;20049;-72
2022/06/23 08:59:09;;;;;;;5.45;2.80;;;13.40;96.90;;;;;;5037894;28;20350;-71
2022/06/23 09:02:01;;;;;;;4.40;2.28;;;13.40;97.20;;;;;;5046015;28;20086;-71
2022/06/23 09:05:01;;;;;;;4.93;2.50;;;13.30;97.30;;;;;;5049764;28;20029;-72
2022/06/23 09:07:37;;;;;;;5.82;2.92;;;13.30;97.30;;;;;;5036262;28;20040;-72
2022/06/23 09:10:24;;;;;;;8.52;3.65;;;13.30;97.50;;;;;;5030624;28;20064;-71
2022/06/23 09:12:54;;;;;;;4.75;3.03;;;13.20;97.40;;;;;;5037967;28;20076;-72
2022/06/23 09:15:40;;;;;;;4.78;2.75;;;13.20;97.60;;;;;;5045920;28;20128;-72
2022/06/23 09:18:51;;;;;;;7.60;3.78;;;13.10;97.90;;;;;;5029574;28;20029;-72
2022/06/23 09:21:30;;;;;;;6.80;3.30;;;13.10;97.90;;;;;;5052508;28;20112;-72
2022/06/23 09:24:18;;;;;;;8.57;3.75;;;13.10;98.00;;;;;;5053913;28;20133;-72
2022/06/23 09:27:06;;;;;;;7.57;3.22;;;13.10;98.00;;;;;;5051190;28;20033;-71
2022/06/23 09:30:06;;;;;;;11.00;5.28;;;13.00;97.80;;;;;;5052962;28;20048;-71
2022/06/23 09:32:54;;;;;;;4.78;3.47;;;13.00;97.80;;;;;;5011283;28;20029;-71
2022/06/23 09:35:36;;;;;;;8.25;4.78;;;13.00;97.70;;;;;;5028262;28;20102;-71
2022/06/23 09:38:22;;;;;;;13.02;9.13;;;13.00;97.70;;;;;;5029931;28;20087;-72
2022/06/23 09:41:15;;;;;;;11.13;7.80;;;13.00;97.70;;;;;;5027662;28;20025;-72
2022/06/23 09:44:04;;;;;;;13.55;11.73;;;13.00;97.70;;;;;;5031947;28;20064;-70
2022/06/23 09:46:53;;;;;;;8.38;5.47;;;13.00;97.80;;;;;;5026476;28;20034;-70
2022/06/23 09:49:38;;;;;;;5.13;3.45;;;13.00;97.70;;;;;;5025387;28;20040;-70
2022/06/23 09:52:42;;;;;;;4.82;3.35;;;12.90;97.60;;;;;;5026936;28;20819;-71
2022/06/23 09:55:30;;;;;;;6.80;4.40;;;13.00;97.70;;;;;;5031482;28;20766;-72
2022/06/23 09:58:19;;;;;;;7.22;4.53;;;13.00;97.80;;;;;;5032010;28;20112;-72
2022/06/23 10:00:58;;;;;;;9.57;5.78;;;13.00;98.00;;;;;;5031058;28;20037;-73
2022/06/23 10:03:44;;;;;;;7.85;3.85;;;12.90;98.10;;;;;;5032129;28;20018;-72
2022/06/23 10:06:26;;;;;;;5.03;2.83;;;12.90;97.90;;;;;;5032961;28;20351;-73
2022/06/23 10:08:56;;;;;;;5.80;3.45;;;12.90;98.00;;;;;;5031504;28;20025;-75
2022/06/23 10:12:00;;;;;;;4.25;2.15;;;12.80;98.10;;;;;;5029569;28;20037;-74
2022/06/23 10:14:48;;;;;;;5.50;2.50;;;12.90;98.00;;;;;;5034894;28;20059;-74
2022/06/23 10:17:52;;;;;;;3.85;2.17;;;12.80;98.00;;;;;;5032005;28;20036;-72
2022/06/23 10:20:41;;;;;;;4.97;2.50;;;12.80;98.10;;;;;;5032898;28;20064;-74
2022/06/23 10:23:27;;;;;;;4.45;2.67;;;12.80;98.10;;;;;;5031700;28;20048;-75
2022/06/23 10:26:03;;;;;;;9.13;3.30;;;12.80;98.20;;;;;;5031957;28;20029;-75
2022/06/23 10:29:01;;;;;;;5.13;2.72;;;12.80;98.30;;;;;;5033074;28;20032;-75
2022/06/23 10:32:05;;;;;;;4.65;2.88;;;12.70;98.50;;;;;;5030461;28;20033;-74
2022/06/23 10:35:00;;;;;;;6.07;4.22;;;12.70;98.70;;;;;;5033166;28;20021;-72
2022/06/23 10:37:48;;;;;;;6.15;4.65;;;12.70;98.90;;;;;;5031253;28;20018;-74
2022/06/23 10:40:33;;;;;;;8.50;3.92;;;12.70;99.10;;;;;;5032804;28;20041;-73
2022/06/23 10:43:22;;;;;;;6.88;4.15;;;12.50;99.30;;;;;;5033137;28;20572;-74
2022/06/23 10:46:21;;;;;;;9.68;5.25;;;12.50;99.60;;;;;;5032783;28;20516;-71
2022/06/23 10:49:07;;;;;;;5.15;3.38;;;12.50;99.80;;;;;;5033376;28;20045;-72
2022/06/23 10:51:47;;;;;;;7.70;4.65;;;12.40;99.90;;;;;;5031826;28;20540;-72
2022/06/23 10:54:29;;;;;;;7.45;5.15;;;12.30;99.90;;;;;;5034211;28;20064;-74
2022/06/23 10:57:15;;;;;;;7.40;5.57;;;12.20;99.90;;;;;;5033726;28;20481;-73
2022/06/23 10:59:54;;;;;;;6.43;4.63;;;12.20;99.90;;;;;;5029163;28;20052;-73
2022/06/23 11:02:51;;;;;;;7.15;4.32;;;12.20;99.90;;;;;;5030589;28;20048;-74
2022/06/23 11:05:39;;;;;;;5.63;3.45;;;12.10;99.90;;;;;;5015743;28;20441;-74
2022/06/23 11:08:11;;;;;;;7.78;4.13;;;12.10;99.90;;;;;;5032482;28;20091;-74
2022/06/23 11:11:20;;;;;;;6.25;3.55;;;12.00;99.90;;;;;;5031577;28;20035;-76
2022/06/23 11:14:14;;;;;;;5.93;4.00;;;12.00;99.90;;;;;;5035253;28;20038;-76
2022/06/23 11:16:57;;;;;;;8.82;5.00;;;12.00;99.90;;;;;;5035788;28;20017;-76
2022/06/23 11:19:30;;;;;;;;;;;12.00;99.90;;;;;;5031609;28;20025;-74
2022/06/23 11:22:00;;;;;;;;;;;12.00;99.90;;;;;;5035197;28;19909;-75
2022/06/23 11:24:48;;;;;;;6.30;3.53;;;11.90;99.90;;;;;;5034059;28;19912;-73
2022/06/23 11:27:41;;;;;;;6.95;3.83;;;12.00;99.90;;;;;;5034824;28;20104;-75
2022/06/23 11:30:30;;;;;;;9.48;4.30;;;12.00;99.90;;;;;;5033076;28;20048;-74
2022/06/23 11:33:52;;;;;;;9.50;4.57;;;12.00;99.90;;;;;;5031486;28;20079;-75
2022/06/23 11:36:39;;;;;;;7.68;4.20;;;11.90;99.90;;;;;;5038307;28;20033;-76
2022/06/23 11:39:46;;;;;;;8.00;4.05;;;12.00;99.90;;;;;;5029245;28;20112;-75
2022/06/23 11:42:31;;;;;;;5.10;3.50;;;11.90;99.90;;;;;;5031533;28;20113;-76
2022/06/23 11:45:27;;;;;;;4.85;3.17;;;11.90;99.90;;;;;;5031105;28;20018;-75
2022/06/23 11:48:04;;;;;;;5.32;3.72;;;11.90;99.90;;;;;;5031569;28;20040;-76
2022/06/23 11:51:05;;;;;;;2.92;2.30;;;11.80;99.90;;;;;;5032168;28;20040;-74
2022/06/23 11:54:10;;;;;;;4.82;2.65;;;11.80;99.90;;;;;;5031330;28;20497;-74
2022/06/23 11:56:52;;;;;;;5.43;3.08;;;11.90;99.90;;;;;;5032323;28;20037;-77
2022/06/23 11:59:23;;;;;;;3.33;2.17;;;11.80;99.90;;;;;;5030953;28;20025;-75
2022/06/23 12:01:51;;;;;;;5.22;2.72;;;11.80;99.90;;;;;;5031259;28;20114;-76
2022/06/23 12:04:33;;;;;;;5.07;2.83;;;11.80;99.90;;;;;;5031516;28;20018;-73
2022/06/23 12:07:16;;;;;;;3.90;2.60;;;11.80;99.90;;;;;;5031194;28;20489;-77
2022/06/23 12:10:13;;;;;;;4.07;2.55;;;11.70;99.90;;;;;;5029912;28;20055;-76
2022/06/23 12:12:45;;;;;;;4.50;2.30;;;11.70;99.90;;;;;;5029981;28;20029;-76
2022/06/23 12:15:17;;;;;;;3.13;2.38;;;11.70;99.90;;;;;;5031155;28;20013;-75
2022/06/23 12:17:50;;;;;;;5.38;2.30;;;11.70;99.90;;;;;;5029531;28;20025;-77
2022/06/23 12:20:30;;;;;;;4.50;2.55;;;11.70;99.90;;;;;;5030680;28;20128;-76
2022/06/23 12:23:03;;;;;;;4.43;2.50;;;11.60;99.90;;;;;;5029681;28;20509;-77
2022/06/23 12:25:40;;;;;;;4.22;2.83;;;11.60;99.90;;;;;;5030798;28;20040;-76
2022/06/23 12:28:16;;;;;;;6.03;3.90;;;11.60;99.90;;;;;;5035127;28;20064;-76
2022/06/23 12:30:55;;;;;;;4.65;3.20;;;11.50;99.90;;;;;;5029690;28;20037;-76
2022/06/23 12:33:27;;;;;;;3.95;2.95;;;11.40;99.90;;;;;;5047297;28;20060;-75
2022/06/23 12:36:17;;;;;;;4.00;2.70;;;11.40;99.90;;;;;;5051906;28;20021;-76
2022/06/23 12:38:56;;;;;;;5.13;3.03;;;11.30;99.90;;;;;;5051676;28;20078;-75
2022/06/23 12:41:29;;;;;;;4.63;2.95;;;11.30;99.90;;;;;;5052215;28;20013;-75
2022/06/23 12:43:58;;;;;;;3.65;2.95;;;11.20;99.90;;;;;;5067362;28;20025;-76
2022/06/23 12:46:28;;;;;;;6.93;3.10;;;11.20;99.90;;;;;;5051538;28;20032;-75
2022/06/23 12:49:09;;;;;;;4.72;3.28;;;11.10;99.90;;;;;;5051586;28;20397;-74
2022/06/23 12:52:00;;;;;;;4.32;2.80;;;11.10;99.90;;;;;;5051416;28;20028;-74
2022/06/23 12:54:52;;;;;;;4.50;2.38;;;11.10;99.90;;;;;;5051221;28;20052;-75
2022/06/23 12:58:08;;;;;;;4.88;3.10;;;11.10;99.90;;;;;;5051517;28;20025;-75
2022/06/23 13:00:38;;;;;;;4.40;2.45;;;11.10;99.90;;;;;;5047224;28;20400;-75
2022/06/23 13:03:27;;;;;;;4.93;2.70;;;11.10;99.90;;;;;;5051507;28;20024;-75
2022/06/23 13:06:21;;;;;;;3.80;2.58;;;11.00;99.90;;;;;;5050196;28;20100;-74
2022/06/23 13:09:04;;;;;;;5.45;3.35;;;11.00;99.90;;;;;;5034555;28;20036;-75
2022/06/23 13:11:51;;;;;;;4.80;3.60;;;11.10;99.90;;;;;;5051556;28;20036;-76
2022/06/23 13:14:44;;;;;;;8.38;4.53;;;11.00;99.90;;;;;;5051583;28;20035;-76
2022/06/23 13:17:26;;;;;;;6.65;4.13;;;11.00;99.90;;;;;;5051193;28;20033;-75
2022/06/23 13:20:28;;;;;;;7.10;4.00;;;11.00;99.90;;;;;;5049715;28;20040;-75
2022/06/23 13:23:15;;;;;;;7.17;3.47;;;11.00;99.90;;;;;;5051608;28;20078;-77
2022/06/23 13:26:25;;;;;;;8.80;3.50;;;11.00;99.90;;;;;;5050145;28;20119;-75
2022/06/23 13:29:28;;;;;;;3.83;2.85;;;10.90;99.90;;;;;;5050519;28;20037;-74
2022/06/23 13:32:22;;;;;;;4.75;3.33;;;10.90;99.90;;;;;;5051538;28;20029;-74
2022/06/23 13:35:16;;;;;;;4.70;2.88;;;10.90;99.90;;;;;;5051487;28;20033;-75
2022/06/23 13:37:55;;;;;;;4.47;2.30;;;10.80;99.90;;;;;;5050824;28;20020;-74
2022/06/23 13:40:53;;;;;;;5.63;3.03;;;10.80;99.90;;;;;;5051199;28;20025;-75
2022/06/23 13:44:05;;;;;;;4.75;2.70;;;10.70;99.90;;;;;;5054226;28;20466;-73
2022/06/23 13:47:09;;;;;;;6.05;3.35;;;10.70;99.90;;;;;;5053387;28;20028;-75
2022/06/23 13:49:43;;;;;;;5.60;3.45;;;10.60;99.90;;;;;;5038910;28;20045;-75
2022/06/23 13:52:37;;;;;;;6.68;3.40;;;10.60;99.90;;;;;;5050732;28;20064;-76
2022/06/23 13:55:10;;;;;;;6.05;3.15;;;10.60;99.90;;;;;;5031874;28;20053;-74
2022/06/23 13:57:58;;;;;;;4.47;3.13;;;10.60;99.90;;;;;;5051294;28;20525;-75
2022/06/23 14:00:37;;;;;;;6.00;3.13;;;10.60;99.90;;;;;;5046233;28;20505;-73
2022/06/23 14:03:20;;;;;;;5.45;3.25;;;10.50;99.90;;;;;;5054635;28;20021;-75
2022/06/23 14:06:02;;;;;;;6.32;3.60;;;10.40;99.90;;;;;;5044867;28;20033;-74
2022/06/23 14:08:38;;;;;;;5.03;2.92;;;10.40;99.90;;;;;;5038214;28;20515;-75
2022/06/23 14:11:42;;;;;;;4.93;3.13;;;10.40;99.90;;;;;;5054538;28;20094;-75
2022/06/23 14:14:15;;;;;;;6.30;2.92;;;10.30;99.90;;;;;;5054790;28;20029;-75
2022/06/23 14:17:00;;;;;;;5.43;3.35;;;10.30;99.90;;;;;;5054104;28;20064;-74
2022/06/23 14:19:45;;;;;;;5.20;3.30;;;10.20;99.90;;;;;;5054198;28;20024;-76